sensor_id;sensor_type;location;lat;lon;timestamp;temperature;humidity
16437;DHT22;8328;52.206;21.006;2024-03-07T00:00:07;5.70;99.90
16437;DHT22;8328;52.206;21.006;2024-03-07T00:02:41;5.80;99.90
16437;DHT22;8328;52.206;21.006;2024-03-07T00:19:50;5.50;99.90
16437;DHT22;8328;52.206;21.006;2024-03-07T01:03:49;5.20;99.90
16437;DHT22;8328;52.206;21.006;2024-03-07T01:16:03;5.20;99.90
16437;DHT22;8328;52.206;21.006;2024-03-07T01:52:40;5.10;99.90
16437;DHT22;8328;52.206;21.006;2024-03-07T01:55:07;5.10;99.90
16437;DHT22;8328;52.206;21.006;2024-03-07T02:17:06;3.60;99.90
16437;DHT22;8328;52.206;21.006;2024-03-07T02:41:30;3.40;99.90
16437;DHT22;8328;52.206;21.006;2024-03-07T03:35:33;2.30;99.90
16437;DHT22;8328;52.206;21.006;2024-03-07T03:38:00;2.20;99.90
16437;DHT22;8328;52.206;21.006;2024-03-07T03:47:47;2.00;99.90
16437;DHT22;8328;52.206;21.006;2024-03-07T03:50:15;1.90;99.90
16437;DHT22;8328;52.206;21.006;2024-03-07T04:00:41;1.80;99.90
16437;DHT22;8328;52.206;21.006;2024-03-07T04:10:40;1.40;99.90
16437;DHT22;8328;52.206;21.006;2024-03-07T04:28:19;1.20;99.90
16437;DHT22;8328;52.206;21.006;2024-03-07T04:33:51;1.00;99.90
16437;DHT22;8328;52.206;21.006;2024-03-07T04:36:54;1.00;99.90
16437;DHT22;8328;52.206;21.006;2024-03-07T04:55:10;1.00;99.90
16437;DHT22;8328;52.206;21.006;2024-03-07T05:19:09;1.10;99.90
16437;DHT22;8328;52.206;21.006;2024-03-07T05:21:35;1.10;99.90
16437;DHT22;8328;52.206;21.006;2024-03-07T05:24:07;1.10;99.90
16437;DHT22;8328;52.206;21.006;2024-03-07T05:26:37;1.20;99.90
16437;DHT22;8328;52.206;21.006;2024-03-07T05:29:07;1.20;99.90
16437;DHT22;8328;52.206;21.006;2024-03-07T05:31:34;1.20;99.90
16437;DHT22;8328;52.206;21.006;2024-03-07T05:34:02;1.20;99.90
16437;DHT22;8328;52.206;21.006;2024-03-07T05:36:37;1.30;99.90
16437;DHT22;8328;52.206;21.006;2024-03-07T05:39:13;1.50;99.90
16437;DHT22;8328;52.206;21.006;2024-03-07T05:41:43;1.50;99.90
16437;DHT22;8328;52.206;21.006;2024-03-07T05:46:37;1.60;99.90
16437;DHT22;8328;52.206;21.006;2024-03-07T05:49:28;1.60;99.90
16437;DHT22;8328;52.206;21.006;2024-03-07T05:51:59;1.60;99.90
16437;DHT22;8328;52.206;21.006;2024-03-07T05:54:29;1.60;99.90
16437;DHT22;8328;52.206;21.006;2024-03-07T05:56:55;1.60;99.90
16437;DHT22;8328;52.206;21.006;2024-03-07T05:59:21;1.70;99.90
16437;DHT22;8328;52.206;21.006;2024-03-07T06:01:48;1.70;99.90
16437;DHT22;8328;52.206;21.006;2024-03-07T06:04:14;1.80;99.90
16437;DHT22;8328;52.206;21.006;2024-03-07T06:06:41;1.80;99.90
16437;DHT22;8328;52.206;21.006;2024-03-07T06:09:10;1.80;99.90
16437;DHT22;8328;52.206;21.006;2024-03-07T06:11:36;1.80;99.90
16437;DHT22;8328;52.206;21.006;2024-03-07T06:14:06;1.80;99.90
16437;DHT22;8328;52.206;21.006;2024-03-07T06:16:36;2.00;99.90
16437;DHT22;8328;52.206;21.006;2024-03-07T06:19:04;2.50;99.90
16437;DHT22;8328;52.206;21.006;2024-03-07T06:21:32;2.40;99.90
16437;DHT22;8328;52.206;21.006;2024-03-07T06:23:59;2.60;99.90
16437;DHT22;8328;52.206;21.006;2024-03-07T06:26:35;3.10;99.90
16437;DHT22;8328;52.206;21.006;2024-03-07T06:29:14;4.00;99.90
16437;DHT22;8328;52.206;21.006;2024-03-07T06:31:44;4.50;99.90
16437;DHT22;8328;52.206;21.006;2024-03-07T06:34:13;4.40;99.90
16437;DHT22;8328;52.206;21.006;2024-03-07T06:36:39;4.20;99.90
16437;DHT22;8328;52.206;21.006;2024-03-07T06:39:06;4.00;99.90
16437;DHT22;8328;52.206;21.006;2024-03-07T06:41:36;3.90;99.90
16437;DHT22;8328;52.206;21.006;2024-03-07T06:44:02;4.00;99.90
16437;DHT22;8328;52.206;21.006;2024-03-07T06:46:28;3.90;99.90
16437;DHT22;8328;52.206;21.006;2024-03-07T06:48:54;4.20;99.90
16437;DHT22;8328;52.206;21.006;2024-03-07T06:51:21;4.10;99.90
16437;DHT22;8328;52.206;21.006;2024-03-07T06:53:48;4.60;99.90
16437;DHT22;8328;52.206;21.006;2024-03-07T06:56:16;2.00;99.90
16437;DHT22;8328;52.206;21.006;2024-03-07T06:58:44;4.20;99.90
16437;DHT22;8328;52.206;21.006;2024-03-07T07:01:15;4.30;99.90
16437;DHT22;8328;52.206;21.006;2024-03-07T07:03:41;4.40;99.90
16437;DHT22;8328;52.206;21.006;2024-03-07T07:08:36;4.60;99.90
16437;DHT22;8328;52.206;21.006;2024-03-07T07:11:02;4.60;99.90
16437;DHT22;8328;52.206;21.006;2024-03-07T07:13:30;4.80;99.90
16437;DHT22;8328;52.206;21.006;2024-03-07T07:15:55;4.80;99.90
16437;DHT22;8328;52.206;21.006;2024-03-07T07:18:22;4.80;99.90
16437;DHT22;8328;52.206;21.006;2024-03-07T07:20:50;4.80;99.90
16437;DHT22;8328;52.206;21.006;2024-03-07T07:23:19;5.00;99.90
16437;DHT22;8328;52.206;21.006;2024-03-07T07:25:45;5.00;99.90
16437;DHT22;8328;52.206;21.006;2024-03-07T07:28:12;5.20;99.90
16437;DHT22;8328;52.206;21.006;2024-03-07T07:30:37;5.40;99.90
16437;DHT22;8328;52.206;21.006;2024-03-07T07:33:03;5.70;99.90
16437;DHT22;8328;52.206;21.006;2024-03-07T07:35:30;5.80;99.90
16437;DHT22;8328;52.206;21.006;2024-03-07T07:37:56;5.90;99.90
16437;DHT22;8328;52.206;21.006;2024-03-07T07:40:23;5.70;99.90
16437;DHT22;8328;52.206;21.006;2024-03-07T07:42:52;5.80;99.90
16437;DHT22;8328;52.206;21.006;2024-03-07T07:45:20;5.80;99.90
16437;DHT22;8328;52.206;21.006;2024-03-07T07:47:51;5.80;99.90
16437;DHT22;8328;52.206;21.006;2024-03-07T07:50:19;5.70;99.90
16437;DHT22;8328;52.206;21.006;2024-03-07T07:52:52;5.80;99.90
16437;DHT22;8328;52.206;21.006;2024-03-07T07:55:22;5.70;99.90
16437;DHT22;8328;52.206;21.006;2024-03-07T07:57:51;5.60;99.90
16437;DHT22;8328;52.206;21.006;2024-03-07T08:00:27;5.70;99.90
16437;DHT22;8328;52.206;21.006;2024-03-07T08:03:01;5.70;99.90
16437;DHT22;8328;52.206;21.006;2024-03-07T08:05:30;5.80;99.90
16437;DHT22;8328;52.206;21.006;2024-03-07T08:07:57;6.00;99.90
16437;DHT22;8328;52.206;21.006;2024-03-07T08:10:28;6.00;99.90
16437;DHT22;8328;52.206;21.006;2024-03-07T08:12:57;6.10;99.90
16437;DHT22;8328;52.206;21.006;2024-03-07T08:15:25;6.00;99.90
16437;DHT22;8328;52.206;21.006;2024-03-07T08:17:52;5.90;99.90
16437;DHT22;8328;52.206;21.006;2024-03-07T08:20:19;5.80;99.90
16437;DHT22;8328;52.206;21.006;2024-03-07T08:22:52;5.80;99.90
16437;DHT22;8328;52.206;21.006;2024-03-07T08:25:24;5.80;99.90
16437;DHT22;8328;52.206;21.006;2024-03-07T08:27:51;5.70;99.90
16437;DHT22;8328;52.206;21.006;2024-03-07T08:30:20;5.80;99.90
16437;DHT22;8328;52.206;21.006;2024-03-07T08:32:48;5.70;99.90
16437;DHT22;8328;52.206;21.006;2024-03-07T08:35:14;5.70;99.90
16437;DHT22;8328;52.206;21.006;2024-03-07T08:37:44;5.80;99.90
16437;DHT22;8328;52.206;21.006;2024-03-07T08:40:11;5.90;99.90
16437;DHT22;8328;52.206;21.006;2024-03-07T08:42:45;6.00;99.90
16437;DHT22;8328;52.206;21.006;2024-03-07T08:45:11;5.90;99.90
16437;DHT22;8328;52.206;21.006;2024-03-07T08:47:43;5.80;99.90
16437;DHT22;8328;52.206;21.006;2024-03-07T08:50:09;5.70;99.90
16437;DHT22;8328;52.206;21.006;2024-03-07T08:52:36;5.80;99.90
16437;DHT22;8328;52.206;21.006;2024-03-07T08:55:15;5.90;99.90
16437;DHT22;8328;52.206;21.006;2024-03-07T08:57:42;5.90;99.90
16437;DHT22;8328;52.206;21.006;2024-03-07T09:00:10;6.00;99.90
16437;DHT22;8328;52.206;21.006;2024-03-07T09:02:53;6.10;99.90
16437;DHT22;8328;52.206;21.006;2024-03-07T09:05:20;6.30;99.90
16437;DHT22;8328;52.206;21.006;2024-03-07T09:07:48;6.40;99.90
16437;DHT22;8328;52.206;21.006;2024-03-07T09:10:14;6.40;99.90
16437;DHT22;8328;52.206;21.006;2024-03-07T09:12:41;6.40;99.90
16437;DHT22;8328;52.206;21.006;2024-03-07T09:15:08;6.50;99.90
16437;DHT22;8328;52.206;21.006;2024-03-07T09:17:37;6.50;99.90
16437;DHT22;8328;52.206;21.006;2024-03-07T09:20:07;6.40;99.90
16437;DHT22;8328;52.206;21.006;2024-03-07T09:22:43;6.50;99.90
16437;DHT22;8328;52.206;21.006;2024-03-07T09:25:10;6.40;99.90
16437;DHT22;8328;52.206;21.006;2024-03-07T09:27:36;6.50;99.90
16437;DHT22;8328;52.206;21.006;2024-03-07T09:30:04;6.60;99.90
16437;DHT22;8328;52.206;21.006;2024-03-07T09:32:30;6.80;99.90
16437;DHT22;8328;52.206;21.006;2024-03-07T09:34:58;6.90;99.90
16437;DHT22;8328;52.206;21.006;2024-03-07T09:37:25;6.90;99.90
16437;DHT22;8328;52.206;21.006;2024-03-07T09:39:51;7.10;99.90
16437;DHT22;8328;52.206;21.006;2024-03-07T09:42:17;7.00;99.90
16437;DHT22;8328;52.206;21.006;2024-03-07T09:44:45;7.00;99.90
16437;DHT22;8328;52.206;21.006;2024-03-07T09:47:13;6.90;99.30
16437;DHT22;8328;52.206;21.006;2024-03-07T09:49:40;6.90;99.50
16437;DHT22;8328;52.206;21.006;2024-03-07T09:52:09;6.90;98.40
16437;DHT22;8328;52.206;21.006;2024-03-07T09:54:38;6.90;98.70
16437;DHT22;8328;52.206;21.006;2024-03-07T09:57:06;6.90;98.30
16437;DHT22;8328;52.206;21.006;2024-03-07T09:59:35;7.00;98.00
16437;DHT22;8328;52.206;21.006;2024-03-07T10:02:05;6.70;97.50
16437;DHT22;8328;52.206;21.006;2024-03-07T10:04:48;6.90;98.20
16437;DHT22;8328;52.206;21.006;2024-03-07T10:07:15;7.00;97.20
16437;DHT22;8328;52.206;21.006;2024-03-07T10:09:42;7.00;96.40
16437;DHT22;8328;52.206;21.006;2024-03-07T10:12:09;7.10;95.90
16437;DHT22;8328;52.206;21.006;2024-03-07T10:14:38;7.20;96.70
16437;DHT22;8328;52.206;21.006;2024-03-07T10:17:04;7.30;95.00
16437;DHT22;8328;52.206;21.006;2024-03-07T10:19:30;7.40;95.40
16437;DHT22;8328;52.206;21.006;2024-03-07T10:21:56;7.60;94.20
16437;DHT22;8328;52.206;21.006;2024-03-07T10:24:27;7.80;94.30
16437;DHT22;8328;52.206;21.006;2024-03-07T10:26:55;7.80;93.20
16437;DHT22;8328;52.206;21.006;2024-03-07T10:29:23;7.80;91.70
16437;DHT22;8328;52.206;21.006;2024-03-07T10:31:49;7.90;92.30
16437;DHT22;8328;52.206;21.006;2024-03-07T10:34:15;8.00;92.70
16437;DHT22;8328;52.206;21.006;2024-03-07T10:36:43;8.20;92.10
16437;DHT22;8328;52.206;21.006;2024-03-07T10:39:09;8.30;90.60
16437;DHT22;8328;52.206;21.006;2024-03-07T10:41:48;8.40;90.80
16437;DHT22;8328;52.206;21.006;2024-03-07T10:44:24;7.20;88.80
16437;DHT22;8328;52.206;21.006;2024-03-07T10:46:55;8.50;90.30
16437;DHT22;8328;52.206;21.006;2024-03-07T10:49:21;8.70;90.10
16437;DHT22;8328;52.206;21.006;2024-03-07T10:52:02;9.00;90.00
16437;DHT22;8328;52.206;21.006;2024-03-07T10:55:07;9.30;86.70
16437;DHT22;8328;52.206;21.006;2024-03-07T10:57:50;9.70;83.90
16437;DHT22;8328;52.206;21.006;2024-03-07T11:00:22;9.80;75.80
16437;DHT22;8328;52.206;21.006;2024-03-07T11:02:56;10.00;73.90
16437;DHT22;8328;52.206;21.006;2024-03-07T11:05:28;10.30;73.00
16437;DHT22;8328;52.206;21.006;2024-03-07T11:07:58;10.70;72.70
16437;DHT22;8328;52.206;21.006;2024-03-07T11:10:28;10.90;68.30
16437;DHT22;8328;52.206;21.006;2024-03-07T11:12:57;11.00;61.80
16437;DHT22;8328;52.206;21.006;2024-03-07T11:15:25;11.20;62.80
16437;DHT22;8328;52.206;21.006;2024-03-07T11:17:55;11.30;58.60
16437;DHT22;8328;52.206;21.006;2024-03-07T11:20:34;11.60;57.00
16437;DHT22;8328;52.206;21.006;2024-03-07T11:23:00;11.60;54.70
16437;DHT22;8328;52.206;21.006;2024-03-07T11:25:28;11.90;53.70
16437;DHT22;8328;52.206;21.006;2024-03-07T11:30:22;12.40;51.20
16437;DHT22;8328;52.206;21.006;2024-03-07T11:32:51;12.70;48.10
16437;DHT22;8328;52.206;21.006;2024-03-07T11:35:34;12.80;44.10
16437;DHT22;8328;52.206;21.006;2024-03-07T11:38:01;12.90;42.50
16437;DHT22;8328;52.206;21.006;2024-03-07T11:42:56;13.30;37.30
16437;DHT22;8328;52.206;21.006;2024-03-07T11:45:26;13.90;39.00
16437;DHT22;8328;52.206;21.006;2024-03-07T11:47:55;14.00;36.50
16437;DHT22;8328;52.206;21.006;2024-03-07T11:50:41;12.60;32.70
16437;DHT22;8328;52.206;21.006;2024-03-07T11:53:08;13.80;33.20
16437;DHT22;8328;52.206;21.006;2024-03-07T11:55:39;14.00;31.70
16437;DHT22;8328;52.206;21.006;2024-03-07T11:58:12;14.20;30.30
16437;DHT22;8328;52.206;21.006;2024-03-07T12:00:42;14.20;29.40
16437;DHT22;8328;52.206;21.006;2024-03-07T12:03:14;14.40;30.30
16437;DHT22;8328;52.206;21.006;2024-03-07T12:05:44;13.40;27.70
16437;DHT22;8328;52.206;21.006;2024-03-07T12:08:11;14.50;27.30
16437;DHT22;8328;52.206;21.006;2024-03-07T12:10:38;14.30;26.40
16437;DHT22;8328;52.206;21.006;2024-03-07T12:13:07;14.30;27.70
16437;DHT22;8328;52.206;21.006;2024-03-07T12:15:33;14.30;26.50
16437;DHT22;8328;52.206;21.006;2024-03-07T12:18:01;14.40;25.60
16437;DHT22;8328;52.206;21.006;2024-03-07T12:20:27;13.90;25.30
16437;DHT22;8328;52.206;21.006;2024-03-07T12:22:57;14.30;26.00
16437;DHT22;8328;52.206;21.006;2024-03-07T12:25:23;14.50;24.50
16437;DHT22;8328;52.206;21.006;2024-03-07T12:28:03;14.60;23.40
16437;DHT22;8328;52.206;21.006;2024-03-07T12:30:47;15.00;23.50
16437;DHT22;8328;52.206;21.006;2024-03-07T12:33:15;15.20;23.00
16437;DHT22;8328;52.206;21.006;2024-03-07T12:35:43;15.60;22.00
16437;DHT22;8328;52.206;21.006;2024-03-07T12:38:09;15.30;21.70
16437;DHT22;8328;52.206;21.006;2024-03-07T12:40:44;14.80;20.40
16437;DHT22;8328;52.206;21.006;2024-03-07T12:43:19;14.40;21.20
16437;DHT22;8328;52.206;21.006;2024-03-07T12:45:49;13.90;21.00
16437;DHT22;8328;52.206;21.006;2024-03-07T12:48:16;13.30;22.10
16437;DHT22;8328;52.206;21.006;2024-03-07T12:50:45;12.80;23.00
16437;DHT22;8328;52.206;21.006;2024-03-07T12:53:11;12.50;23.50
16437;DHT22;8328;52.206;21.006;2024-03-07T12:55:40;12.20;24.10
16437;DHT22;8328;52.206;21.006;2024-03-07T12:58:09;11.70;24.60
16437;DHT22;8328;52.206;21.006;2024-03-07T13:00:37;11.20;25.40
16437;DHT22;8328;52.206;21.006;2024-03-07T13:03:04;10.70;26.20
16437;DHT22;8328;52.206;21.006;2024-03-07T13:05:34;10.40;26.70
16437;DHT22;8328;52.206;21.006;2024-03-07T13:07:59;10.10;27.50
16437;DHT22;8328;52.206;21.006;2024-03-07T13:10:25;9.90;29.30
16437;DHT22;8328;52.206;21.006;2024-03-07T13:12:51;9.70;29.10
16437;DHT22;8328;52.206;21.006;2024-03-07T13:15:18;9.50;29.30
16437;DHT22;8328;52.206;21.006;2024-03-07T13:17:44;9.40;30.00
16437;DHT22;8328;52.206;21.006;2024-03-07T13:20:11;9.40;30.80
16437;DHT22;8328;52.206;21.006;2024-03-07T13:22:39;9.20;31.20
16437;DHT22;8328;52.206;21.006;2024-03-07T13:25:09;9.20;31.80
16437;DHT22;8328;52.206;21.006;2024-03-07T13:30:25;9.20;32.50
16437;DHT22;8328;52.206;21.006;2024-03-07T13:32:58;9.20;33.00
16437;DHT22;8328;52.206;21.006;2024-03-07T13:35:25;9.20;33.20
16437;DHT22;8328;52.206;21.006;2024-03-07T13:37:52;9.10;33.20
16437;DHT22;8328;52.206;21.006;2024-03-07T13:40:24;9.00;33.40
16437;DHT22;8328;52.206;21.006;2024-03-07T13:42:57;9.00;33.40
16437;DHT22;8328;52.206;21.006;2024-03-07T13:45:26;9.00;33.20
16437;DHT22;8328;52.206;21.006;2024-03-07T13:47:53;8.90;33.20
16437;DHT22;8328;52.206;21.006;2024-03-07T13:50:21;8.90;33.30
16437;DHT22;8328;52.206;21.006;2024-03-07T13:52:54;8.90;33.20
16437;DHT22;8328;52.206;21.006;2024-03-07T14:14:40;8.60;36.80
16437;DHT22;8328;52.206;21.006;2024-03-07T14:21:06;8.60;37.20
16437;DHT22;8328;52.206;21.006;2024-03-07T14:23:39;8.60;37.50
16437;DHT22;8328;52.206;21.006;2024-03-07T14:31:43;8.40;38.10
16437;DHT22;8328;52.206;21.006;2024-03-07T14:37:28;8.20;38.60
16437;DHT22;8328;52.206;21.006;2024-03-07T14:40:08;8.20;38.90
16437;DHT22;8328;52.206;21.006;2024-03-07T14:42:44;8.20;39.50
16437;DHT22;8328;52.206;21.006;2024-03-07T14:45:17;8.30;40.30
16437;DHT22;8328;52.206;21.006;2024-03-07T14:47:45;8.10;40.10
16437;DHT22;8328;52.206;21.006;2024-03-07T14:50:12;8.10;40.70
16437;DHT22;8328;52.206;21.006;2024-03-07T14:52:45;8.00;41.20
16437;DHT22;8328;52.206;21.006;2024-03-07T14:55:11;8.00;41.40
16437;DHT22;8328;52.206;21.006;2024-03-07T14:57:40;8.00;41.50
16437;DHT22;8328;52.206;21.006;2024-03-07T15:00:09;7.90;41.20
16437;DHT22;8328;52.206;21.006;2024-03-07T15:02:49;7.80;41.80
16437;DHT22;8328;52.206;21.006;2024-03-07T15:05:15;7.80;42.10
16437;DHT22;8328;52.206;21.006;2024-03-07T15:07:48;7.70;42.50
16437;DHT22;8328;52.206;21.006;2024-03-07T15:10:28;7.60;42.00
16437;DHT22;8328;52.206;21.006;2024-03-07T15:15:22;7.50;43.10
16437;DHT22;8328;52.206;21.006;2024-03-07T15:17:50;7.50;44.40
16437;DHT22;8328;52.206;21.006;2024-03-07T15:20:17;7.50;44.00
16437;DHT22;8328;52.206;21.006;2024-03-07T15:25:15;7.40;45.00
16437;DHT22;8328;52.206;21.006;2024-03-07T15:27:45;7.40;44.00
16437;DHT22;8328;52.206;21.006;2024-03-07T15:30:15;7.40;44.10
16437;DHT22;8328;52.206;21.006;2024-03-07T15:32:42;7.40;43.10
16437;DHT22;8328;52.206;21.006;2024-03-07T15:35:10;7.20;44.10
16437;DHT22;8328;52.206;21.006;2024-03-07T15:37:43;7.20;44.30
16437;DHT22;8328;52.206;21.006;2024-03-07T15:40:09;7.10;44.30
16437;DHT22;8328;52.206;21.006;2024-03-07T15:42:43;7.00;44.80
16437;DHT22;8328;52.206;21.006;2024-03-07T15:45:13;7.00;45.10
16437;DHT22;8328;52.206;21.006;2024-03-07T15:47:51;7.00;45.10
16437;DHT22;8328;52.206;21.006;2024-03-07T15:50:18;7.00;45.30
16437;DHT22;8328;52.206;21.006;2024-03-07T15:52:46;7.00;45.60
16437;DHT22;8328;52.206;21.006;2024-03-07T15:55:12;6.90;45.70
16437;DHT22;8328;52.206;21.006;2024-03-07T15:57:50;7.00;46.50
16437;DHT22;8328;52.206;21.006;2024-03-07T16:00:23;6.90;45.50
16437;DHT22;8328;52.206;21.006;2024-03-07T16:02:53;6.80;45.90
16437;DHT22;8328;52.206;21.006;2024-03-07T16:05:29;6.70;46.20
16437;DHT22;8328;52.206;21.006;2024-03-07T16:07:57;6.40;46.80
16437;DHT22;8328;52.206;21.006;2024-03-07T16:10:24;6.60;47.90
16437;DHT22;8328;52.206;21.006;2024-03-07T16:12:53;6.50;47.70
16437;DHT22;8328;52.206;21.006;2024-03-07T16:15:20;6.40;48.30
16437;DHT22;8328;52.206;21.006;2024-03-07T16:17:47;6.40;48.80
16437;DHT22;8328;52.206;21.006;2024-03-07T16:20:13;6.30;49.70
16437;DHT22;8328;52.206;21.006;2024-03-07T16:22:44;6.20;50.10
16437;DHT22;8328;52.206;21.006;2024-03-07T16:25:12;6.10;50.10
16437;DHT22;8328;52.206;21.006;2024-03-07T16:27:45;5.60;50.30
16437;DHT22;8328;52.206;21.006;2024-03-07T16:30:14;6.00;51.30
16437;DHT22;8328;52.206;21.006;2024-03-07T16:32:44;5.90;51.90
16437;DHT22;8328;52.206;21.006;2024-03-07T16:35:16;5.90;52.40
16437;DHT22;8328;52.206;21.006;2024-03-07T16:37:46;5.90;53.10
16437;DHT22;8328;52.206;21.006;2024-03-07T16:40:22;5.80;53.60
16437;DHT22;8328;52.206;21.006;2024-03-07T16:42:50;5.80;53.90
16437;DHT22;8328;52.206;21.006;2024-03-07T16:45:21;5.80;54.30
16437;DHT22;8328;52.206;21.006;2024-03-07T16:47:49;5.70;54.70
16437;DHT22;8328;52.206;21.006;2024-03-07T16:50:20;5.70;55.80
16437;DHT22;8328;52.206;21.006;2024-03-07T16:52:52;5.60;55.60
16437;DHT22;8328;52.206;21.006;2024-03-07T16:57:52;5.20;56.00
16437;DHT22;8328;52.206;21.006;2024-03-07T17:00:23;6.50;58.80
16437;DHT22;8328;52.206;21.006;2024-03-07T17:03:15;5.20;58.90
16437;DHT22;8328;52.206;21.006;2024-03-07T17:05:46;6.10;61.10
16437;DHT22;8328;52.206;21.006;2024-03-07T17:08:12;5.50;58.80
16437;DHT22;8328;52.206;21.006;2024-03-07T17:10:39;5.50;60.20
16437;DHT22;8328;52.206;21.006;2024-03-07T17:13:06;5.50;60.50
16437;DHT22;8328;52.206;21.006;2024-03-07T17:15:34;5.50;61.50
16437;DHT22;8328;52.206;21.006;2024-03-07T17:18:00;5.50;61.60
16437;DHT22;8328;52.206;21.006;2024-03-07T17:20:26;5.40;61.20
16437;DHT22;8328;52.206;21.006;2024-03-07T17:25:21;5.20;62.30
16437;DHT22;8328;52.206;21.006;2024-03-07T17:27:49;5.30;64.00
16437;DHT22;8328;52.206;21.006;2024-03-07T17:30:23;5.30;64.80
16437;DHT22;8328;52.206;21.006;2024-03-07T17:32:50;5.20;65.60
16437;DHT22;8328;52.206;21.006;2024-03-07T17:35:17;5.20;66.70
16437;DHT22;8328;52.206;21.006;2024-03-07T17:37:48;5.30;67.40
16437;DHT22;8328;52.206;21.006;2024-03-07T17:40:17;5.30;67.70
16437;DHT22;8328;52.206;21.006;2024-03-07T17:42:51;5.30;69.20
16437;DHT22;8328;52.206;21.006;2024-03-07T17:45:25;6.60;70.90
16437;DHT22;8328;52.206;21.006;2024-03-07T17:47:54;5.20;70.50
16437;DHT22;8328;52.206;21.006;2024-03-07T17:50:21;5.30;71.40
16437;DHT22;8328;52.206;21.006;2024-03-07T17:52:52;5.20;71.90
16437;DHT22;8328;52.206;21.006;2024-03-07T17:55:19;5.30;73.50
16437;DHT22;8328;52.206;21.006;2024-03-07T17:57:49;5.20;73.50
16437;DHT22;8328;52.206;21.006;2024-03-07T18:00:23;5.20;74.90
16437;DHT22;8328;52.206;21.006;2024-03-07T18:02:53;5.20;75.30
16437;DHT22;8328;52.206;21.006;2024-03-07T18:05:29;1.80;72.40
16437;DHT22;8328;52.206;21.006;2024-03-07T18:07:57;5.20;76.50
16437;DHT22;8328;52.206;21.006;2024-03-07T18:10:24;5.30;78.10
16437;DHT22;8328;52.206;21.006;2024-03-07T18:12:51;5.00;79.00
16437;DHT22;8328;52.206;21.006;2024-03-07T18:15:22;5.20;79.30
16437;DHT22;8328;52.206;21.006;2024-03-07T18:17:53;5.10;79.80
16437;DHT22;8328;52.206;21.006;2024-03-07T18:20:25;5.00;80.60
16437;DHT22;8328;52.206;21.006;2024-03-07T18:23:17;4.90;82.00
16437;DHT22;8328;52.206;21.006;2024-03-07T18:28:12;4.90;83.60
16437;DHT22;8328;52.206;21.006;2024-03-07T18:30:39;4.80;85.60
16437;DHT22;8328;52.206;21.006;2024-03-07T18:33:05;4.80;86.30
16437;DHT22;8328;52.206;21.006;2024-03-07T18:35:35;4.80;86.40
16437;DHT22;8328;52.206;21.006;2024-03-07T18:38:04;4.70;89.70
16437;DHT22;8328;52.206;21.006;2024-03-07T18:40:34;4.70;90.10
16437;DHT22;8328;52.206;21.006;2024-03-07T18:43:03;4.60;90.60
16437;DHT22;8328;52.206;21.006;2024-03-07T18:45:36;4.60;91.30
16437;DHT22;8328;52.206;21.006;2024-03-07T18:48:02;4.60;91.70
16437;DHT22;8328;52.206;21.006;2024-03-07T18:50:32;4.60;92.10
16437;DHT22;8328;52.206;21.006;2024-03-07T18:52:58;4.60;92.70
16437;DHT22;8328;52.206;21.006;2024-03-07T18:55:24;4.60;93.10
16437;DHT22;8328;52.206;21.006;2024-03-07T18:58:00;4.60;93.40
16437;DHT22;8328;52.206;21.006;2024-03-07T19:00:27;4.60;93.90
16437;DHT22;8328;52.206;21.006;2024-03-07T19:02:54;4.60;94.50
16437;DHT22;8328;52.206;21.006;2024-03-07T19:05:25;4.60;95.00
16437;DHT22;8328;52.206;21.006;2024-03-07T19:07:53;4.60;96.00
16437;DHT22;8328;52.206;21.006;2024-03-07T19:10:26;4.60;96.00
16437;DHT22;8328;52.206;21.006;2024-03-07T19:12:57;5.50;96.60
16437;DHT22;8328;52.206;21.006;2024-03-07T19:15:22;4.60;96.50
16437;DHT22;8328;52.206;21.006;2024-03-07T19:17:48;4.60;96.90
16437;DHT22;8328;52.206;21.006;2024-03-07T19:20:18;4.60;97.10
16437;DHT22;8328;52.206;21.006;2024-03-07T19:22:48;4.70;97.30
16437;DHT22;8328;52.206;21.006;2024-03-07T19:25:17;4.60;97.80
16437;DHT22;8328;52.206;21.006;2024-03-07T19:27:49;4.70;98.10
16437;DHT22;8328;52.206;21.006;2024-03-07T19:30:16;4.60;98.40
16437;DHT22;8328;52.206;21.006;2024-03-07T19:32:49;4.60;98.80
16437;DHT22;8328;52.206;21.006;2024-03-07T19:35:16;4.60;99.30
16437;DHT22;8328;52.206;21.006;2024-03-07T19:37:46;4.60;99.40
16437;DHT22;8328;52.206;21.006;2024-03-07T19:40:17;4.60;99.60
16437;DHT22;8328;52.206;21.006;2024-03-07T19:42:51;4.60;99.90
16437;DHT22;8328;52.206;21.006;2024-03-07T19:45:17;4.50;99.90
16437;DHT22;8328;52.206;21.006;2024-03-07T19:47:43;4.60;99.90
16437;DHT22;8328;52.206;21.006;2024-03-07T19:50:09;4.60;99.90
16437;DHT22;8328;52.206;21.006;2024-03-07T19:52:45;4.60;99.90
16437;DHT22;8328;52.206;21.006;2024-03-07T19:55:17;4.50;99.90
16437;DHT22;8328;52.206;21.006;2024-03-07T19:57:46;4.50;99.90
16437;DHT22;8328;52.206;21.006;2024-03-07T20:00:17;4.50;99.90
16437;DHT22;8328;52.206;21.006;2024-03-07T20:02:46;4.50;99.90
16437;DHT22;8328;52.206;21.006;2024-03-07T20:05:13;4.60;99.90
16437;DHT22;8328;52.206;21.006;2024-03-07T20:07:45;4.50;99.90
16437;DHT22;8328;52.206;21.006;2024-03-07T20:10:11;4.50;99.90
16437;DHT22;8328;52.206;21.006;2024-03-07T20:12:39;4.40;99.90
16437;DHT22;8328;52.206;21.006;2024-03-07T20:15:07;4.50;99.90
16437;DHT22;8328;52.206;21.006;2024-03-07T20:17:37;4.40;99.90
16437;DHT22;8328;52.206;21.006;2024-03-07T20:20:04;4.40;99.90
16437;DHT22;8328;52.206;21.006;2024-03-07T20:22:50;4.40;99.90
16437;DHT22;8328;52.206;21.006;2024-03-07T20:25:20;4.40;99.90
16437;DHT22;8328;52.206;21.006;2024-03-07T20:27:47;4.30;99.90
16437;DHT22;8328;52.206;21.006;2024-03-07T20:30:19;4.30;99.90
16437;DHT22;8328;52.206;21.006;2024-03-07T20:32:45;4.40;99.90
16437;DHT22;8328;52.206;21.006;2024-03-07T20:35:16;4.30;99.90
16437;DHT22;8328;52.206;21.006;2024-03-07T20:37:48;4.30;99.90
16437;DHT22;8328;52.206;21.006;2024-03-07T20:40:21;4.30;99.90
16437;DHT22;8328;52.206;21.006;2024-03-07T20:42:50;4.20;99.90
16437;DHT22;8328;52.206;21.006;2024-03-07T20:45:17;4.10;99.90
16437;DHT22;8328;52.206;21.006;2024-03-07T20:47:47;4.10;99.90
16437;DHT22;8328;52.206;21.006;2024-03-07T20:50:15;4.10;99.90
16437;DHT22;8328;52.206;21.006;2024-03-07T20:52:44;4.00;99.90
16437;DHT22;8328;52.206;21.006;2024-03-07T20:55:14;4.00;99.90
16437;DHT22;8328;52.206;21.006;2024-03-07T20:57:48;4.00;99.90
16437;DHT22;8328;52.206;21.006;2024-03-07T21:00:19;4.00;99.90
16437;DHT22;8328;52.206;21.006;2024-03-07T21:02:52;4.00;99.90
16437;DHT22;8328;52.206;21.006;2024-03-07T21:05:20;4.10;99.90
16437;DHT22;8328;52.206;21.006;2024-03-07T21:07:50;4.00;99.90
16437;DHT22;8328;52.206;21.006;2024-03-07T21:10:18;4.00;99.90
16437;DHT22;8328;52.206;21.006;2024-03-07T21:12:46;4.00;99.90
16437;DHT22;8328;52.206;21.006;2024-03-07T21:15:12;4.00;99.90
16437;DHT22;8328;52.206;21.006;2024-03-07T21:17:41;3.90;99.90
16437;DHT22;8328;52.206;21.006;2024-03-07T21:20:08;3.80;99.90
16437;DHT22;8328;52.206;21.006;2024-03-07T21:22:46;3.30;99.90
16437;DHT22;8328;52.206;21.006;2024-03-07T21:25:13;3.80;99.90
16437;DHT22;8328;52.206;21.006;2024-03-07T21:27:43;3.70;99.90